createdAt,value
2022-09-26T00:00:23.105Z,1005.68
2022-09-26T00:01:23.244Z,1005.69
2022-09-26T00:02:23.181Z,1005.66
2022-09-26T00:03:23.097Z,1005.66
2022-09-26T00:04:24.626Z,1005.63
2022-09-26T00:05:23.093Z,1005.65
2022-09-26T00:06:23.095Z,1005.60
2022-09-26T00:07:23.090Z,1005.61
2022-09-26T00:08:23.089Z,1005.58
2022-09-26T00:09:23.094Z,1005.60
2022-09-26T00:10:23.084Z,1005.57
2022-09-26T00:11:23.085Z,1005.56
2022-09-26T00:12:23.079Z,1005.58
2022-09-26T00:13:23.077Z,1005.57
2022-09-26T00:14:23.072Z,1005.54
2022-09-26T00:15:23.069Z,1005.50
2022-09-26T00:16:23.206Z,1005.44
2022-09-26T00:17:23.068Z,1005.45
2022-09-26T00:18:23.065Z,1005.45
2022-09-26T00:19:23.063Z,1005.45
2022-09-26T00:20:23.078Z,1005.41
2022-09-26T00:21:23.059Z,1005.38
2022-09-26T00:22:23.053Z,1005.39
2022-09-26T00:23:23.050Z,1005.39
2022-09-26T00:24:23.056Z,1005.39
2022-09-26T00:25:23.052Z,1005.34
2022-09-26T00:26:23.053Z,1005.35
2022-09-26T00:27:23.043Z,1005.27
2022-09-26T00:28:23.039Z,1005.26
2022-09-26T00:29:23.036Z,1005.20
2022-09-26T00:30:23.093Z,1005.20
2022-09-26T00:31:23.122Z,1005.18
2022-09-26T00:32:23.028Z,1005.16
2022-09-26T00:33:23.029Z,1005.12
2022-09-26T00:34:23.024Z,1005.10
2022-09-26T00:35:23.032Z,1005.09
2022-09-26T00:36:29.803Z,1005.07
2022-09-26T00:37:23.026Z,1005.08
2022-09-26T00:38:23.020Z,1005.05
2022-09-26T00:39:23.018Z,1005.00
2022-09-26T00:40:23.066Z,1005.03
2022-09-26T00:41:23.022Z,1004.97
2022-09-26T00:42:23.020Z,1004.94
2022-09-26T00:43:23.008Z,1004.97
2022-09-26T00:44:23.005Z,1004.94
2022-09-26T00:45:23.001Z,1004.96
2022-09-26T00:46:23.107Z,1004.92
2022-09-26T00:47:22.997Z,1004.95
2022-09-26T00:48:22.993Z,1004.89
2022-09-26T00:49:22.993Z,1004.93
2022-09-26T00:50:22.992Z,1004.90
2022-09-26T00:51:22.992Z,1004.92
2022-09-26T00:52:23.004Z,1004.89
2022-09-26T00:53:22.981Z,1004.87
2022-09-26T00:54:22.983Z,1004.86
2022-09-26T00:55:22.976Z,1004.85
2022-09-26T00:56:23.178Z,1004.85
2022-09-26T00:57:22.972Z,1004.88
2022-09-26T00:58:22.973Z,1004.88
2022-09-26T00:59:22.968Z,1004.88
2022-09-26T01:00:22.966Z,1004.85
2022-09-26T01:01:23.069Z,1004.79
2022-09-26T01:02:23.073Z,1004.75
2022-09-26T01:03:22.974Z,1004.77
2022-09-26T01:04:22.959Z,1004.76
2022-09-26T01:05:22.955Z,1004.75
2022-09-26T01:06:22.952Z,1004.75
2022-09-26T01:07:22.951Z,1004.73
2022-09-26T01:08:22.969Z,1004.73
2022-09-26T01:09:22.947Z,1004.71
2022-09-26T01:10:22.942Z,1004.72
2022-09-26T01:11:22.941Z,1004.66
2022-09-26T01:12:22.942Z,1004.67
2022-09-26T01:13:22.935Z,1004.66
2022-09-26T01:14:22.937Z,1004.65
2022-09-26T01:15:22.931Z,1004.64
2022-09-26T01:16:22.961Z,1004.62
2022-09-26T01:17:22.932Z,1004.61
2022-09-26T01:18:22.927Z,1004.57
2022-09-26T01:19:22.926Z,1004.56
2022-09-26T01:20:22.919Z,1004.58
2022-09-26T01:21:22.917Z,1004.58
2022-09-26T01:22:22.920Z,1004.52
2022-09-26T01:23:22.915Z,1004.56
2022-09-26T01:24:22.935Z,1004.54
2022-09-26T01:25:22.911Z,1004.51
2022-09-26T01:26:22.912Z,1004.55
2022-09-26T01:27:22.907Z,1004.55
2022-09-26T01:28:22.906Z,1004.53
2022-09-26T01:29:22.903Z,1004.54
2022-09-26T01:30:22.903Z,1004.52
2022-09-26T01:31:22.978Z,1004.52
2022-09-26T01:32:22.898Z,1004.47
2022-09-26T01:33:22.890Z,1004.45
2022-09-26T01:34:22.893Z,1004.43
2022-09-26T01:35:22.893Z,1004.47
2022-09-26T01:36:22.887Z,1004.43
2022-09-26T01:37:22.882Z,1004.41
2022-09-26T01:38:22.881Z,1004.41
2022-09-26T01:39:22.877Z,1004.40
2022-09-26T01:40:22.904Z,1004.36
2022-09-26T01:41:22.876Z,1004.39
2022-09-26T01:42:22.875Z,1004.37
2022-09-26T01:43:22.871Z,1004.37
2022-09-26T01:44:22.870Z,1004.36
2022-09-26T01:45:22.866Z,1004.35
2022-09-26T01:46:22.910Z,1004.34
2022-09-26T01:47:22.860Z,1004.34
2022-09-26T01:48:22.861Z,1004.35
2022-09-26T01:49:22.857Z,1004.32
2022-09-26T01:50:22.856Z,1004.31
2022-09-26T01:51:22.859Z,1004.28
2022-09-26T01:52:22.850Z,1004.29
2022-09-26T01:53:22.848Z,1004.26
2022-09-26T01:54:22.850Z,1004.23
2022-09-26T01:55:22.846Z,1004.21
2022-09-26T01:56:22.860Z,1004.18
2022-09-26T01:57:22.844Z,1004.19
2022-09-26T01:58:22.840Z,1004.18
2022-09-26T01:59:22.836Z,1004.14
2022-09-26T02:00:22.838Z,1004.13
2022-09-26T02:01:22.916Z,1004.14
2022-09-26T02:02:22.906Z,1004.11
2022-09-26T02:03:22.826Z,1004.10
2022-09-26T02:04:22.837Z,1004.05
2022-09-26T02:05:22.828Z,1004.04
2022-09-26T02:06:22.827Z,1004.09
2022-09-26T02:07:22.823Z,1004.05
2022-09-26T02:08:22.817Z,1004.05
2022-09-26T02:09:22.822Z,1004.03
2022-09-26T02:10:22.813Z,1004.04
2022-09-26T02:11:22.810Z,1004.05
2022-09-26T02:12:22.910Z,1004.04
2022-09-26T02:13:22.805Z,1004.04
2022-09-26T02:14:22.811Z,1004.00
2022-09-26T02:15:22.812Z,1003.94
2022-09-26T02:16:22.870Z,1003.91
2022-09-26T02:17:22.797Z,1003.88
2022-09-26T02:18:22.808Z,1003.86
2022-09-26T02:19:22.791Z,1003.85
2022-09-26T02:20:22.792Z,1003.87
2022-09-26T02:21:22.789Z,1003.85
2022-09-26T02:22:22.793Z,1003.84
2022-09-26T02:23:22.787Z,1003.82
2022-09-26T02:24:22.787Z,1003.80
2022-09-26T02:25:22.779Z,1003.77
2022-09-26T02:26:22.783Z,1003.79
2022-09-26T02:27:22.777Z,1003.76
2022-09-26T02:28:22.792Z,1003.76
2022-09-26T02:29:22.770Z,1003.70
2022-09-26T02:30:22.775Z,1003.71
2022-09-26T02:31:22.901Z,1003.64
2022-09-26T02:32:22.767Z,1003.66
2022-09-26T02:33:22.763Z,1003.62
2022-09-26T02:34:22.764Z,1003.58
2022-09-26T02:35:22.757Z,1003.53
2022-09-26T02:36:22.762Z,1003.49
2022-09-26T02:37:22.753Z,1003.48
2022-09-26T02:38:22.754Z,1003.48
2022-09-26T02:39:22.749Z,1003.45
2022-09-26T02:40:22.813Z,1003.42
2022-09-26T02:41:22.749Z,1003.44
2022-09-26T02:42:22.746Z,1003.41
2022-09-26T02:43:22.744Z,1003.39
2022-09-26T02:44:22.762Z,1003.37
2022-09-26T02:45:22.738Z,1003.38
2022-09-26T02:46:22.804Z,1003.29
2022-09-26T02:47:22.731Z,1003.30
2022-09-26T02:48:22.731Z,1003.28
2022-09-26T02:49:22.730Z,1003.28
2022-09-26T02:50:22.737Z,1003.31
2022-09-26T02:51:22.724Z,1003.30
2022-09-26T02:52:22.723Z,1003.26
2022-09-26T02:53:22.724Z,1003.25
2022-09-26T02:54:22.721Z,1003.18
2022-09-26T02:55:22.714Z,1003.17
2022-09-26T02:56:22.713Z,1003.15
2022-09-26T02:57:22.713Z,1003.15
2022-09-26T02:58:22.712Z,1003.12
2022-09-26T02:59:22.727Z,1003.13
2022-09-26T03:00:22.818Z,1003.12
2022-09-26T03:01:22.962Z,1003.08
2022-09-26T03:02:22.702Z,1003.07
2022-09-26T03:03:22.745Z,1003.06
2022-09-26T03:04:22.744Z,1003.07
2022-09-26T03:05:22.695Z,1003.01
2022-09-26T03:06:22.714Z,1003.02
2022-09-26T03:07:22.743Z,1002.96
2022-09-26T03:08:22.690Z,1002.89
2022-09-26T03:09:22.685Z,1002.93
2022-09-26T03:10:22.685Z,1002.88
2022-09-26T03:11:22.679Z,1002.86
2022-09-26T03:12:22.678Z,1002.85
2022-09-26T03:13:22.675Z,1002.84
2022-09-26T03:14:22.680Z,1002.83
2022-09-26T03:15:22.674Z,1002.79
2022-09-26T03:16:22.836Z,1002.79
2022-09-26T03:17:22.667Z,1002.78
2022-09-26T03:18:22.666Z,1002.77
2022-09-26T03:19:22.662Z,1002.76
2022-09-26T03:20:22.674Z,1002.72
2022-09-26T03:21:22.661Z,1002.71
2022-09-26T03:22:22.661Z,1002.67
2022-09-26T03:23:22.661Z,1002.65
2022-09-26T03:24:22.653Z,1002.67
2022-09-26T03:25:22.652Z,1002.64
2022-09-26T03:26:22.652Z,1002.57
2022-09-26T03:27:22.651Z,1002.56
2022-09-26T03:28:22.649Z,1002.54
2022-09-26T03:29:22.641Z,1002.51
2022-09-26T03:30:22.646Z,1002.51
2022-09-26T03:31:22.725Z,1002.51
2022-09-26T03:32:22.658Z,1002.49
2022-09-26T03:33:22.639Z,1002.48
2022-09-26T03:34:22.637Z,1002.47
2022-09-26T03:35:22.629Z,1002.46
2022-09-26T03:36:22.630Z,1002.46
2022-09-26T03:37:22.625Z,1002.40
2022-09-26T03:38:22.624Z,1002.46
2022-09-26T03:39:22.622Z,1002.40
2022-09-26T03:40:22.662Z,1002.37
2022-09-26T03:41:22.618Z,1002.31
2022-09-26T03:42:22.625Z,1002.31
2022-09-26T03:43:22.612Z,1002.29
2022-09-26T03:44:22.614Z,1002.30
2022-09-26T03:45:22.687Z,1002.31
2022-09-26T03:46:22.609Z,1002.29
2022-09-26T03:47:22.605Z,1002.27
2022-09-26T03:48:22.626Z,1002.24
2022-09-26T03:49:22.602Z,1002.25
2022-09-26T03:50:22.600Z,1002.26
2022-09-26T03:51:22.595Z,1002.22
2022-09-26T03:52:22.599Z,1002.21
2022-09-26T03:53:22.597Z,1002.24
2022-09-26T03:54:22.598Z,1002.23
2022-09-26T03:55:22.587Z,1002.19
2022-09-26T03:56:22.591Z,1002.18
2022-09-26T03:57:22.585Z,1002.18
2022-09-26T03:58:22.583Z,1002.16
2022-09-26T03:59:22.580Z,1002.15
2022-09-26T04:00:22.586Z,1002.12
2022-09-26T04:01:22.839Z,1002.09
2022-09-26T04:02:22.805Z,1002.05
2022-09-26T04:03:22.571Z,1002.01
2022-09-26T04:04:22.590Z,1002.00
2022-09-26T04:05:22.574Z,1001.97
2022-09-26T04:06:22.569Z,1001.95
2022-09-26T04:07:22.563Z,1001.97
2022-09-26T04:08:22.564Z,1001.96
2022-09-26T04:09:22.944Z,1001.93
2022-09-26T04:10:22.561Z,1001.96
2022-09-26T04:11:22.556Z,1001.91
2022-09-26T04:12:22.563Z,1001.88
2022-09-26T04:13:49.602Z,1001.87
2022-09-26T04:14:22.556Z,1001.83
2022-09-26T04:15:22.552Z,1001.84
2022-09-26T04:16:22.905Z,1001.81
2022-09-26T04:17:22.544Z,1001.77
2022-09-26T04:18:22.546Z,1001.77
2022-09-26T04:19:22.539Z,1001.78
2022-09-26T04:20:22.559Z,1001.75
2022-09-26T04:21:22.536Z,1001.71
2022-09-26T04:22:22.536Z,1001.72
2022-09-26T04:23:22.531Z,1001.71
2022-09-26T04:24:22.535Z,1001.67
2022-09-26T04:25:22.527Z,1001.66
2022-09-26T04:26:23.933Z,1001.66
2022-09-26T04:27:22.524Z,1001.70
2022-09-26T04:28:22.519Z,1001.66
2022-09-26T04:29:22.522Z,1001.64
2022-09-26T04:30:22.520Z,1001.67
2022-09-26T04:31:22.629Z,1001.61
2022-09-26T04:32:22.510Z,1001.64
2022-09-26T04:33:22.510Z,1001.53
2022-09-26T04:34:27.049Z,1001.51
2022-09-26T04:35:22.500Z,1001.52
2022-09-26T04:36:22.526Z,1001.46
2022-09-26T04:37:22.505Z,1001.42
2022-09-26T04:38:22.503Z,1001.46
2022-09-26T04:39:22.496Z,1001.44
2022-09-26T04:40:22.625Z,1001.41
2022-09-26T04:41:22.497Z,1001.39
2022-09-26T04:42:22.491Z,1001.37
2022-09-26T04:43:22.485Z,1001.34
2022-09-26T04:44:22.493Z,1001.35
2022-09-26T04:45:22.575Z,1001.29
2022-09-26T04:46:26.886Z,1001.30
2022-09-26T04:47:22.481Z,1001.27
2022-09-26T04:48:22.487Z,1001.25
2022-09-26T04:49:22.482Z,1001.24
2022-09-26T04:50:22.481Z,1001.22
2022-09-26T04:51:22.470Z,1001.19
2022-09-26T04:52:22.487Z,1001.23
2022-09-26T04:53:22.474Z,1001.21
2022-09-26T04:54:22.491Z,1001.16
2022-09-26T04:55:22.470Z,1001.15
2022-09-26T04:56:22.483Z,1001.15
2022-09-26T04:57:22.483Z,1001.18
2022-09-26T04:58:22.458Z,1001.11
2022-09-26T04:59:22.480Z,1001.09
2022-09-26T05:00:22.477Z,1001.10
2022-09-26T05:01:22.851Z,1001.08
2022-09-26T05:02:22.546Z,1001.08
2022-09-26T05:03:22.465Z,1001.07
2022-09-26T05:04:27.324Z,1001.06
2022-09-26T05:05:22.463Z,1001.04
2022-09-26T05:06:23.093Z,1001.00
2022-09-26T05:07:22.439Z,1001.01
2022-09-26T05:08:22.464Z,1000.95
2022-09-26T05:09:22.437Z,1000.97
2022-09-26T05:10:22.444Z,1000.97
2022-09-26T05:11:22.441Z,1000.96
2022-09-26T05:12:22.428Z,1000.96
2022-09-26T05:13:22.441Z,1000.92
2022-09-26T05:14:22.431Z,1000.91
2022-09-26T05:15:22.433Z,1000.88
2022-09-26T05:16:22.599Z,1000.87
2022-09-26T05:17:22.420Z,1000.86
2022-09-26T05:18:22.417Z,1000.84
2022-09-26T05:19:22.415Z,1000.84
2022-09-26T05:20:22.419Z,1000.86
2022-09-26T05:21:22.418Z,1000.83
2022-09-26T05:22:22.408Z,1000.83
2022-09-26T05:23:22.407Z,1000.81
2022-09-26T05:24:22.530Z,1000.82
2022-09-26T05:25:22.402Z,1000.84
2022-09-26T05:26:22.399Z,1000.80
2022-09-26T05:27:22.398Z,1000.81
2022-09-26T05:28:22.400Z,1000.80
2022-09-26T05:29:22.398Z,1000.80
2022-09-26T05:30:22.397Z,1000.79
2022-09-26T05:31:22.476Z,1000.78
2022-09-26T05:32:22.384Z,1000.75
2022-09-26T05:33:22.390Z,1000.80
2022-09-26T05:34:22.383Z,1000.76
2022-09-26T05:35:22.381Z,1000.75
2022-09-26T05:36:22.408Z,1000.71
2022-09-26T05:37:22.379Z,1000.73
2022-09-26T05:38:22.382Z,1000.65
2022-09-26T05:39:22.374Z,1000.67
2022-09-26T05:40:22.488Z,1000.65
2022-09-26T05:41:22.376Z,1000.66
2022-09-26T05:42:22.367Z,1000.62
2022-09-26T05:43:22.372Z,1000.62
2022-09-26T05:44:22.360Z,1000.56
2022-09-26T05:45:22.363Z,1000.57
2022-09-26T05:46:22.388Z,1000.59
2022-09-26T05:47:22.356Z,1000.57
2022-09-26T05:48:22.352Z,1000.54
2022-09-26T05:49:22.354Z,1000.55
2022-09-26T05:50:22.363Z,1000.52
2022-09-26T05:51:22.358Z,1000.51
2022-09-26T05:52:22.342Z,1000.51
2022-09-26T05:53:22.346Z,1000.55
2022-09-26T05:54:22.346Z,1000.52
2022-09-26T05:55:22.344Z,1000.49
2022-09-26T05:56:22.357Z,1000.51
2022-09-26T05:57:22.336Z,1000.48
2022-09-26T05:58:22.336Z,1000.51
2022-09-26T05:59:22.328Z,1000.46
2022-09-26T06:00:22.326Z,1000.49
2022-09-26T06:01:22.370Z,1000.46
2022-09-26T06:02:22.608Z,1000.44
2022-09-26T06:03:22.322Z,1000.44
2022-09-26T06:04:22.318Z,1000.45
2022-09-26T06:05:22.317Z,1000.43
2022-09-26T06:06:22.321Z,1000.46
2022-09-26T06:07:22.315Z,1000.41
2022-09-26T06:08:22.309Z,1000.36
2022-09-26T06:09:22.315Z,1000.35
2022-09-26T06:10:22.305Z,1000.35
2022-09-26T06:11:22.305Z,1000.29
2022-09-26T06:12:22.322Z,1000.30
2022-09-26T06:13:22.305Z,1000.24
2022-09-26T06:14:22.298Z,1000.25
2022-09-26T06:15:22.300Z,1000.23
2022-09-26T06:16:22.355Z,1000.20
2022-09-26T06:17:22.291Z,1000.19
2022-09-26T06:18:22.295Z,1000.18
2022-09-26T06:19:23.237Z,1000.14
2022-09-26T06:20:22.283Z,1000.14
2022-09-26T06:21:23.492Z,1000.14
2022-09-26T06:22:22.281Z,1000.11
2022-09-26T06:23:22.280Z,1000.08
2022-09-26T06:24:22.278Z,1000.12
2022-09-26T06:25:22.277Z,1000.10
2022-09-26T06:26:22.279Z,1000.10
2022-09-26T06:27:22.278Z,1000.07
2022-09-26T06:28:22.370Z,1000.08
2022-09-26T06:29:22.269Z,1000.01
2022-09-26T06:30:22.273Z,1000.03
2022-09-26T06:31:22.337Z,1000.02
2022-09-26T06:32:22.261Z,1000.01
2022-09-26T06:33:22.261Z,999.96
2022-09-26T06:34:22.264Z,999.95
2022-09-26T06:35:22.256Z,999.95
2022-09-26T06:36:22.255Z,999.92
2022-09-26T06:37:22.250Z,999.95
2022-09-26T06:38:22.250Z,999.86
2022-09-26T06:39:22.248Z,999.89
2022-09-26T06:40:22.287Z,999.85
2022-09-26T06:41:22.248Z,999.85
2022-09-26T06:42:22.239Z,999.83
2022-09-26T06:43:22.239Z,999.85
2022-09-26T06:44:22.255Z,999.81
2022-09-26T06:45:22.237Z,999.82
2022-09-26T06:46:22.293Z,999.76
2022-09-26T06:47:22.232Z,999.76
2022-09-26T06:48:24.558Z,999.72
2022-09-26T06:49:22.227Z,999.75
2022-09-26T06:50:22.224Z,999.70
2022-09-26T06:51:22.223Z,999.65
2022-09-26T06:52:22.220Z,999.68
2022-09-26T06:53:22.226Z,999.64
2022-09-26T06:54:22.221Z,999.66
2022-09-26T06:55:22.220Z,999.65
2022-09-26T06:56:22.210Z,999.65
2022-09-26T06:57:22.214Z,999.58
2022-09-26T06:58:22.210Z,999.61
2022-09-26T06:59:22.210Z,999.58
2022-09-26T07:00:22.357Z,999.57
2022-09-26T07:01:22.439Z,999.53
2022-09-26T07:02:22.648Z,999.57
2022-09-26T07:03:22.202Z,999.55
2022-09-26T07:04:22.198Z,999.54
2022-09-26T07:05:22.192Z,999.54
2022-09-26T07:06:22.192Z,999.53
2022-09-26T07:07:22.189Z,999.56
2022-09-26T07:08:37.437Z,999.55
2022-09-26T07:09:22.186Z,999.50
2022-09-26T07:10:22.191Z,999.50
2022-09-26T07:12:22.179Z,999.47
2022-09-26T07:13:22.185Z,999.43
2022-09-26T07:14:22.177Z,999.42
2022-09-26T07:15:22.178Z,999.41
2022-09-26T07:16:22.239Z,999.39
2022-09-26T07:17:22.171Z,999.39
2022-09-26T07:18:22.167Z,999.40
2022-09-26T07:19:22.166Z,999.35
2022-09-26T07:20:22.165Z,999.36
2022-09-26T07:21:22.165Z,999.37
2022-09-26T07:22:22.163Z,999.36
2022-09-26T07:23:22.159Z,999.34
2022-09-26T07:24:22.158Z,999.35
2022-09-26T07:25:22.157Z,999.35
2022-09-26T07:26:22.154Z,999.36
2022-09-26T07:27:22.154Z,999.30
2022-09-26T07:28:22.152Z,999.27
2022-09-26T07:29:22.146Z,999.31
2022-09-26T07:30:22.149Z,999.31
2022-09-26T07:31:22.199Z,999.30
2022-09-26T07:32:22.154Z,999.27
2022-09-26T07:33:23.991Z,999.24
2022-09-26T07:34:22.137Z,999.26
2022-09-26T07:35:22.136Z,999.23
2022-09-26T07:36:22.129Z,999.25
2022-09-26T07:37:22.132Z,999.26
2022-09-26T07:38:22.127Z,999.25
2022-09-26T07:39:22.125Z,999.20
2022-09-26T07:40:22.213Z,999.19
2022-09-26T07:41:22.124Z,999.17
2022-09-26T07:42:22.117Z,999.20
2022-09-26T07:43:30.796Z,999.21
2022-09-26T07:45:29.084Z,999.23
2022-09-26T07:46:22.156Z,999.16
2022-09-26T07:47:22.111Z,999.18
2022-09-26T07:48:22.124Z,999.16
2022-09-26T07:49:22.105Z,999.17
2022-09-26T07:50:22.103Z,999.14
2022-09-26T07:51:22.100Z,999.14
2022-09-26T07:52:22.103Z,999.13
2022-09-26T07:53:22.097Z,999.12
2022-09-26T07:54:22.093Z,999.14
2022-09-26T07:55:22.094Z,999.13
2022-09-26T07:56:22.088Z,999.13
2022-09-26T07:57:22.086Z,999.09
2022-09-26T07:58:22.087Z,999.06
2022-09-26T07:59:22.088Z,999.01
2022-09-26T08:00:22.134Z,999.02
2022-09-26T08:01:22.172Z,998.95
2022-09-26T08:02:22.248Z,998.98
2022-09-26T08:03:22.388Z,998.98
2022-09-26T08:04:22.105Z,999.01
2022-09-26T08:05:22.078Z,998.98
2022-09-26T08:06:22.078Z,998.94
2022-09-26T08:07:22.069Z,998.93
2022-09-26T08:08:22.067Z,998.91
2022-09-26T08:09:22.070Z,998.93
2022-09-26T08:10:22.290Z,998.91
2022-09-26T08:11:22.063Z,998.95
2022-09-26T08:12:22.057Z,998.92
2022-09-26T08:13:22.057Z,998.92
2022-09-26T08:14:22.054Z,998.86
2022-09-26T08:15:22.065Z,998.88
2022-09-26T08:16:22.136Z,998.89
2022-09-26T08:17:22.071Z,998.87
2022-09-26T08:18:22.054Z,998.86
2022-09-26T08:19:22.086Z,998.90
2022-09-26T08:20:22.084Z,998.91
2022-09-26T08:21:22.051Z,998.84
2022-09-26T08:22:22.042Z,998.90
2022-09-26T08:23:22.040Z,998.88
2022-09-26T08:24:22.034Z,998.89
2022-09-26T08:25:22.035Z,998.89
2022-09-26T08:26:22.036Z,998.90
2022-09-26T08:27:22.029Z,998.91
2022-09-26T08:28:22.027Z,998.92
2022-09-26T08:29:22.044Z,998.93
2022-09-26T08:30:22.025Z,998.91
2022-09-26T08:31:22.122Z,998.90
2022-09-26T08:32:22.025Z,998.93
2022-09-26T08:33:22.018Z,998.93
2022-09-26T08:34:25.326Z,998.90
2022-09-26T08:35:22.015Z,998.88
2022-09-26T08:36:22.045Z,998.95
2022-09-26T08:37:22.009Z,998.91
2022-09-26T08:38:22.012Z,998.95
2022-09-26T08:39:22.006Z,998.91
2022-09-26T08:40:22.107Z,998.88
2022-09-26T08:41:22.003Z,998.91
2022-09-26T08:42:22.000Z,998.90
2022-09-26T08:43:21.999Z,998.91
2022-09-26T08:44:24.349Z,998.92
2022-09-26T08:45:21.994Z,998.92
2022-09-26T08:46:22.072Z,998.92
2022-09-26T08:47:21.991Z,998.91
2022-09-26T08:48:21.984Z,998.85
2022-09-26T08:49:21.989Z,998.84
2022-09-26T08:50:21.982Z,998.82
2022-09-26T08:51:26.757Z,998.80
2022-09-26T08:52:22.010Z,998.77
2022-09-26T08:53:21.977Z,998.80
2022-09-26T08:54:22.024Z,998.76
2022-09-26T08:55:21.976Z,998.81
2022-09-26T08:56:21.974Z,998.80
2022-09-26T08:57:21.981Z,998.77
2022-09-26T08:58:26.487Z,998.78
2022-09-26T08:59:21.966Z,998.76
2022-09-26T09:00:21.961Z,998.76
2022-09-26T09:01:22.037Z,998.73
2022-09-26T09:02:22.204Z,998.73
2022-09-26T09:03:21.961Z,998.70
2022-09-26T09:04:21.955Z,998.71
2022-09-26T09:05:21.957Z,998.68
2022-09-26T09:06:21.949Z,998.70
2022-09-26T09:07:21.950Z,998.68
2022-09-26T09:08:22.327Z,998.71
2022-09-26T09:09:21.947Z,998.64
2022-09-26T09:10:21.942Z,998.66
2022-09-26T09:11:21.943Z,998.65
2022-09-26T09:12:24.865Z,998.63
2022-09-26T09:13:21.936Z,998.62
2022-09-26T09:14:21.933Z,998.63
2022-09-26T09:15:25.622Z,998.60
2022-09-26T09:16:21.962Z,998.58
2022-09-26T09:17:21.940Z,998.54
2022-09-26T09:18:21.939Z,998.56
2022-09-26T09:19:21.934Z,998.55
2022-09-26T09:20:21.926Z,998.57
2022-09-26T09:21:21.920Z,998.53
2022-09-26T09:22:21.923Z,998.53
2022-09-26T09:23:21.916Z,998.49
2022-09-26T09:24:21.967Z,998.51
2022-09-26T09:25:21.912Z,998.45
2022-09-26T09:28:21.912Z,998.48
2022-09-26T09:29:21.902Z,998.40
2022-09-26T09:30:21.903Z,998.43
2022-09-26T09:31:21.952Z,998.42
2022-09-26T09:32:21.901Z,998.41
2022-09-26T09:33:21.894Z,998.36
2022-09-26T09:34:21.900Z,998.35
2022-09-26T09:35:21.898Z,998.32
2022-09-26T09:36:21.891Z,998.34
2022-09-26T09:37:21.889Z,998.25
2022-09-26T09:38:21.899Z,998.31
2022-09-26T09:39:21.884Z,998.28
2022-09-26T09:40:21.933Z,998.26
2022-09-26T09:41:21.882Z,998.25
2022-09-26T09:42:21.877Z,998.24
2022-09-26T09:43:21.874Z,998.24
2022-09-26T09:44:21.876Z,998.26
2022-09-26T09:45:21.872Z,998.28
2022-09-26T09:46:21.951Z,998.26
2022-09-26T09:47:21.870Z,998.20
2022-09-26T09:48:21.868Z,998.21
2022-09-26T09:49:21.863Z,998.21
2022-09-26T09:50:21.864Z,998.24
2022-09-26T09:51:21.857Z,998.19
2022-09-26T09:52:21.858Z,998.18
2022-09-26T09:53:21.853Z,998.12
2022-09-26T09:54:21.855Z,998.17
2022-09-26T09:55:24.929Z,998.15
2022-09-26T09:56:21.852Z,998.04
2022-09-26T09:57:21.848Z,998.04
2022-09-26T09:58:21.855Z,998.00
2022-09-26T09:59:21.907Z,998.03
2022-09-26T10:00:21.862Z,998.02
2022-09-26T10:01:21.895Z,997.97
2022-09-26T10:02:21.909Z,997.98
2022-09-26T10:03:21.964Z,997.97
2022-09-26T10:04:21.837Z,997.94
2022-09-26T10:05:21.833Z,997.89
2022-09-26T10:06:44.717Z,997.86
2022-09-26T10:07:21.825Z,997.87
2022-09-26T10:08:21.822Z,997.79
2022-09-26T10:09:35.391Z,997.75
2022-09-26T10:10:21.818Z,997.75
2022-09-26T10:11:21.835Z,997.71
2022-09-26T10:12:21.813Z,997.70
2022-09-26T10:13:22.161Z,997.72
2022-09-26T10:14:21.812Z,997.71
2022-09-26T10:15:21.810Z,997.66
2022-09-26T10:16:21.869Z,997.67
2022-09-26T10:17:21.804Z,997.63
2022-09-26T10:18:25.209Z,997.58
2022-09-26T10:19:21.797Z,997.56
2022-09-26T10:20:21.812Z,997.55
2022-09-26T10:21:21.796Z,997.51
2022-09-26T10:22:21.795Z,997.49
2022-09-26T10:23:21.790Z,997.48
2022-09-26T10:24:21.791Z,997.49
2022-09-26T10:25:21.786Z,997.50
2022-09-26T10:26:21.787Z,997.40
2022-09-26T10:27:21.803Z,997.42
2022-09-26T10:28:21.780Z,997.36
2022-09-26T10:29:21.777Z,997.38
2022-09-26T10:30:21.777Z,997.35
2022-09-26T10:31:21.875Z,997.36
2022-09-26T10:32:21.773Z,997.28
2022-09-26T10:33:21.769Z,997.30
2022-09-26T10:34:21.767Z,997.28
2022-09-26T10:35:21.764Z,997.25
2022-09-26T10:36:21.764Z,997.27
2022-09-26T10:37:21.762Z,997.24
2022-09-26T10:38:21.761Z,997.26
2022-09-26T10:39:21.759Z,997.21
2022-09-26T10:40:21.854Z,997.19
2022-09-26T10:41:21.752Z,997.18
2022-09-26T10:42:21.750Z,997.16
2022-09-26T10:43:21.771Z,997.18
2022-09-26T10:44:21.748Z,997.14
2022-09-26T10:45:21.743Z,997.08
2022-09-26T10:46:21.841Z,997.06
2022-09-26T10:47:21.739Z,997.01
2022-09-26T10:48:21.737Z,996.99
2022-09-26T10:49:21.738Z,996.97
2022-09-26T10:50:21.739Z,996.97
2022-09-26T10:51:21.729Z,996.94
2022-09-26T10:52:21.727Z,996.89
2022-09-26T10:53:21.727Z,996.93
2022-09-26T10:54:21.725Z,996.96
2022-09-26T10:55:21.723Z,996.95
2022-09-26T10:56:21.719Z,996.93
2022-09-26T10:57:21.719Z,996.89
2022-09-26T10:58:22.230Z,996.97
2022-09-26T10:59:21.738Z,996.93
2022-09-26T11:00:21.712Z,996.96
2022-09-26T11:01:21.867Z,996.92
2022-09-26T11:02:21.764Z,996.91
2022-09-26T11:03:21.821Z,996.85
2022-09-26T11:04:21.758Z,996.92
2022-09-26T11:05:21.711Z,996.86
2022-09-26T11:06:23.888Z,996.87
2022-09-26T11:07:21.700Z,996.79
2022-09-26T11:08:21.698Z,996.84
2022-09-26T11:09:21.697Z,996.77
2022-09-26T11:10:21.700Z,996.77
2022-09-26T11:11:21.690Z,996.73
2022-09-26T11:12:21.698Z,996.69
2022-09-26T11:13:21.685Z,996.68
2022-09-26T11:14:25.939Z,996.63
2022-09-26T11:15:21.703Z,996.60
2022-09-26T11:16:21.797Z,996.62
2022-09-26T11:17:21.678Z,996.56
2022-09-26T11:18:22.027Z,996.60
2022-09-26T11:19:21.685Z,996.52
2022-09-26T11:20:21.677Z,996.51
2022-09-26T11:21:28.714Z,996.46
2022-09-26T11:22:21.674Z,996.52
2022-09-26T11:23:21.667Z,996.44
2022-09-26T11:24:21.666Z,996.52
2022-09-26T11:25:21.665Z,996.45
2022-09-26T11:26:21.660Z,996.42
2022-09-26T11:27:21.671Z,996.39
2022-09-26T11:28:21.660Z,996.36
2022-09-26T11:29:21.654Z,996.35
2022-09-26T11:30:21.654Z,996.30
2022-09-26T11:31:21.748Z,996.32
2022-09-26T11:32:21.651Z,996.30
2022-09-26T11:33:21.645Z,996.30
2022-09-26T11:34:21.642Z,996.30
2022-09-26T11:35:21.640Z,996.27
2022-09-26T11:36:21.638Z,996.27
2022-09-26T11:37:21.636Z,996.22
2022-09-26T11:38:21.637Z,996.23
2022-09-26T11:39:21.636Z,996.22
2022-09-26T11:40:21.676Z,996.21
2022-09-26T11:41:21.630Z,996.16
2022-09-26T11:42:21.637Z,996.14
2022-09-26T11:43:21.625Z,996.14
2022-09-26T11:44:21.621Z,996.14
2022-09-26T11:45:21.620Z,996.09
2022-09-26T11:46:21.688Z,996.12
2022-09-26T11:47:21.635Z,996.08
2022-09-26T11:48:21.614Z,996.05
2022-09-26T11:49:21.619Z,996.07
2022-09-26T11:50:21.611Z,996.04
2022-09-26T11:51:21.608Z,995.96
2022-09-26T11:52:21.608Z,995.92
2022-09-26T11:53:21.604Z,996.00
2022-09-26T11:54:21.604Z,995.92
2022-09-26T11:55:21.599Z,995.92
2022-09-26T11:56:21.597Z,995.90
2022-09-26T11:57:21.594Z,995.87
2022-09-26T11:58:21.635Z,995.89
2022-09-26T11:59:21.591Z,995.89
2022-09-26T12:00:21.592Z,995.85
2022-09-26T12:01:21.587Z,995.83
2022-09-26T12:02:21.741Z,995.83
2022-09-26T12:03:21.765Z,995.83
2022-09-26T12:04:21.591Z,995.79
2022-09-26T12:05:26.650Z,995.75
2022-09-26T12:06:21.579Z,995.76
2022-09-26T12:07:21.576Z,995.76
2022-09-26T12:08:21.578Z,995.68
2022-09-26T12:09:21.572Z,995.71
2022-09-26T12:10:21.575Z,995.72
2022-09-26T12:11:21.568Z,995.74
2022-09-26T12:12:21.571Z,995.72
2022-09-26T12:13:21.564Z,995.62
2022-09-26T12:14:21.597Z,995.65
2022-09-26T12:15:21.606Z,995.64
2022-09-26T12:16:21.679Z,995.64
2022-09-26T12:17:21.556Z,995.63
2022-09-26T12:18:21.560Z,995.59
2022-09-26T12:19:21.570Z,995.58
2022-09-26T12:20:21.551Z,995.53